Time;durP1;ratioP1;P1;durP2;ratioP2;P2;SDS_P1;SDS_P2;PMS_P1;PMS_P2;Temp;Humidity;BMP_temperature;BMP_pressure;BME280_temperature;BME280_humidity;BME280_pressure;Samples;Min_cycle;Max_cycle;Signal;HPM_P1;HPM_P2
2022/03/09 00:02:03;;;;;;;12.00;8.70;;;5.40;68.90;;;;;;7340572;19;110208;-87
2022/03/09 00:04:31;;;;;;;14.20;8.73;;;5.30;68.80;;;;;;7339215;19;109512;-87
2022/03/09 00:06:58;;;;;;;13.23;7.70;;;5.30;68.90;;;;;;7347361;19;112511;-87
2022/03/09 00:09:25;;;;;;;11.93;8.53;;;5.30;68.70;;;;;;7339232;19;108923;-87
2022/03/09 00:11:53;;;;;;;11.57;8.33;;;5.30;68.70;;;;;;7341850;19;109490;-87
2022/03/09 00:14:20;;;;;;;16.27;8.77;;;5.30;68.70;;;;;;7341681;19;109130;-87
2022/03/09 00:16:47;;;;;;;14.63;8.53;;;5.20;68.90;;;;;;7339392;19;109458;-87
2022/03/09 00:19:14;;;;;;;12.90;8.67;;;5.20;68.90;;;;;;7343072;19;110047;-87
2022/03/09 00:21:41;;;;;;;12.60;8.57;;;5.20;68.90;;;;;;7340235;19;110204;-87
2022/03/09 00:24:08;;;;;;;15.97;8.87;;;5.20;68.90;;;;;;7341909;19;108319;-87
2022/03/09 00:26:35;;;;;;;15.07;8.93;;;5.10;69.10;;;;;;7342731;19;110143;-87
2022/03/09 00:29:03;;;;;;;13.43;8.87;;;5.10;69.00;;;;;;7344764;19;110133;-87
2022/03/09 00:31:30;;;;;;;10.27;8.20;;;5.10;69.00;;;;;;7341958;19;109346;-87
2022/03/09 00:33:57;;;;;;;13.97;8.87;;;5.00;69.10;;;;;;7339996;19;110228;-87
2022/03/09 00:36:24;;;;;;;16.53;8.73;;;5.00;69.10;;;;;;7340995;19;108160;-87
2022/03/09 00:38:51;;;;;;;14.53;8.40;;;5.00;69.20;;;;;;7341229;19;111525;-87
2022/03/09 00:41:18;;;;;;;15.80;9.27;;;5.00;69.10;;;;;;7339281;19;110147;-87
2022/03/09 00:43:45;;;;;;;12.73;9.27;;;4.90;69.20;;;;;;7341161;19;108374;-87
2022/03/09 00:46:12;;;;;;;14.57;9.03;;;4.90;69.30;;;;;;7340072;19;110283;-86
2022/03/09 00:48:40;;;;;;;14.30;8.00;;;4.90;69.40;;;;;;7341341;19;110541;-86
2022/03/09 00:51:07;;;;;;;13.60;9.07;;;4.90;69.50;;;;;;7352984;19;108642;-86
2022/03/09 00:53:37;;;;;;;13.33;9.43;;;4.90;69.40;;;;;;7344370;19;110168;-86
2022/03/09 00:56:05;;;;;;;10.87;8.10;;;4.90;69.50;;;;;;7345783;19;109374;-86
2022/03/09 00:58:33;;;;;;;12.13;7.90;;;4.80;69.40;;;;;;7346249;19;113204;-87
2022/03/09 01:01:01;;;;;;;12.10;8.60;;;4.80;69.60;;;;;;7344188;19;110023;-86
2022/03/09 01:03:28;;;;;;;13.97;8.50;;;4.80;69.60;;;;;;7349708;19;108907;-86
2022/03/09 01:05:55;;;;;;;12.10;8.67;;;4.80;69.60;;;;;;7343089;19;109398;-86
2022/03/09 01:08:22;;;;;;;12.87;8.10;;;4.70;69.60;;;;;;7345032;19;110142;-87
2022/03/09 01:10:49;;;;;;;14.87;8.70;;;4.70;69.90;;;;;;7347046;19;110409;-87
2022/03/09 01:13:17;;;;;;;11.43;8.00;;;4.70;70.00;;;;;;7349438;19;112505;-87
2022/03/09 01:15:44;;;;;;;11.57;8.50;;;4.70;70.00;;;;;;7346603;19;108311;-86
2022/03/09 01:18:12;;;;;;;12.50;8.33;;;4.70;69.90;;;;;;7345171;19;112257;-87
2022/03/09 01:20:39;;;;;;;14.47;8.43;;;4.70;70.00;;;;;;7346289;19;109419;-87
2022/03/09 01:23:06;;;;;;;12.73;8.70;;;4.60;69.90;;;;;;7347784;19;110023;-86
2022/03/09 01:25:33;;;;;;;11.90;8.63;;;4.60;69.90;;;;;;7344717;19;109778;-87
2022/03/09 01:28:01;;;;;;;12.03;8.67;;;4.60;70.10;;;;;;7347905;19;110403;-86
2022/03/09 01:30:28;;;;;;;11.90;8.37;;;4.60;70.10;;;;;;7346265;19;111338;-86
2022/03/09 01:32:55;;;;;;;11.03;7.77;;;4.60;70.10;;;;;;7344592;19;109488;-86
2022/03/09 01:35:22;;;;;;;14.53;8.50;;;4.60;70.20;;;;;;7352120;19;110514;-86
2022/03/09 01:37:49;;;;;;;11.43;8.33;;;4.60;70.10;;;;;;7345625;19;109444;-86
2022/03/09 01:40:17;;;;;;;13.83;8.40;;;4.50;70.30;;;;;;7346262;19;110431;-87
2022/03/09 01:42:44;;;;;;;12.07;8.43;;;4.50;70.30;;;;;;7345467;19;108490;-86
2022/03/09 01:45:13;;;;;;;12.57;8.43;;;4.50;70.40;;;;;;7345292;19;110164;-86
2022/03/09 01:47:40;;;;;;;12.63;8.43;;;4.50;70.40;;;;;;7347389;19;110293;-86
2022/03/09 01:50:08;;;;;;;14.37;8.70;;;4.50;70.50;;;;;;7344880;19;109086;-85
2022/03/09 01:52:39;;;;;;;13.63;8.90;;;4.50;70.50;;;;;;7345056;19;109096;-87
2022/03/09 01:55:06;;;;;;;12.43;9.63;;;4.50;70.60;;;;;;7350274;19;109553;-87
2022/03/09 01:57:34;;;;;;;12.30;9.10;;;4.50;70.60;;;;;;7345603;19;112732;-86
2022/03/09 02:00:01;;;;;;;12.23;8.67;;;4.40;70.70;;;;;;7343647;19;110247;-86
2022/03/09 02:02:28;;;;;;;13.13;8.67;;;4.40;70.60;;;;;;7344793;19;108841;-86
2022/03/09 02:04:57;;;;;;;16.77;8.83;;;4.40;70.60;;;;;;7347475;19;109851;-87
2022/03/09 02:10:12;;;;;;;12.47;8.37;;;4.40;70.80;;;;;;7346090;19;108353;-87
2022/03/09 02:12:39;;;;;;;13.30;8.47;;;4.30;70.80;;;;;;7347097;19;109853;-86
2022/03/09 02:15:07;;;;;;;13.90;8.27;;;4.30;70.80;;;;;;7343142;19;110172;-87
2022/03/09 02:17:34;;;;;;;15.40;8.57;;;4.30;70.90;;;;;;7351193;19;111022;-86
2022/03/09 02:20:03;;;;;;;13.27;8.57;;;4.20;70.90;;;;;;7344625;19;110139;-86
2022/03/09 02:22:37;;;;;;;12.10;8.73;;;4.20;71.00;;;;;;7343996;19;108961;-87
2022/03/09 02:25:16;;;;;;;13.43;9.00;;;4.20;71.00;;;;;;7346654;19;112446;-86
2022/03/09 02:27:44;;;;;;;15.30;8.43;;;4.20;71.20;;;;;;7343854;19;110462;-87
2022/03/09 02:30:19;;;;;;;13.03;8.53;;;4.10;71.20;;;;;;7344736;19;108177;-86
2022/03/09 02:32:49;;;;;;;12.63;8.93;;;4.10;71.20;;;;;;7346634;19;109821;-86
2022/03/09 02:35:18;;;;;;;15.80;9.17;;;4.10;71.30;;;;;;7343980;19;110489;-87
2022/03/09 02:37:45;;;;;;;11.23;8.80;;;4.10;71.50;;;;;;7342977;19;108584;-87
2022/03/09 02:40:15;;;;;;;12.57;9.13;;;4.00;71.60;;;;;;7349815;19;108541;-87
2022/03/09 02:42:42;;;;;;;12.13;8.80;;;4.00;71.80;;;;;;7343932;19;108394;-87
2022/03/09 02:45:11;;;;;;;13.60;8.40;;;3.90;71.70;;;;;;7347188;19;110365;-87
2022/03/09 02:47:43;;;;;;;14.10;8.57;;;3.90;71.90;;;;;;7345000;19;109396;-87
2022/03/09 02:50:12;;;;;;;17.27;8.30;;;3.90;72.00;;;;;;7344823;19;108278;-86
2022/03/09 02:52:40;;;;;;;11.93;8.30;;;3.90;72.00;;;;;;7342945;19;109515;-86
2022/03/09 02:55:09;;;;;;;11.30;8.37;;;3.90;72.10;;;;;;7343458;19;109775;-86
2022/03/09 02:57:36;;;;;;;13.43;8.50;;;3.90;72.90;;;;;;7344121;19;108457;-87
2022/03/09 03:00:07;;;;;;;12.17;8.43;;;3.90;72.20;;;;;;7346390;19;110335;-87
2022/03/09 03:02:36;;;;;;;13.37;8.53;;;3.90;72.10;;;;;;7347940;19;113161;-87
2022/03/09 03:05:04;;;;;;;14.10;8.50;;;3.90;72.20;;;;;;7344873;19;110055;-87
2022/03/09 03:07:32;;;;;;;11.70;7.93;;;3.80;72.40;;;;;;7340036;19;108934;-86
2022/03/09 03:09:59;;;;;;;11.37;8.07;;;3.80;72.50;;;;;;7343983;19;109459;-87
2022/03/09 03:12:26;;;;;;;11.23;8.10;;;3.80;72.70;;;;;;7341575;19;109625;-87
2022/03/09 03:14:53;;;;;;;15.20;8.23;;;3.80;72.50;;;;;;7342669;19;110564;-87
2022/03/09 03:17:20;;;;;;;14.73;8.17;;;3.70;72.50;;;;;;7342639;19;108672;-86
2022/03/09 03:19:47;;;;;;;12.33;8.63;;;3.70;72.40;;;;;;7340896;19;108836;-86
2022/03/09 03:22:14;;;;;;;13.60;8.20;;;3.70;72.50;;;;;;7343744;19;110253;-86
2022/03/09 03:24:41;;;;;;;13.13;8.17;;;3.70;72.50;;;;;;7348352;19;108696;-86
2022/03/09 03:27:08;;;;;;;11.63;8.23;;;3.70;72.60;;;;;;7341188;19;110556;-87
2022/03/09 03:29:35;;;;;;;11.30;7.90;;;3.60;72.60;;;;;;7344075;19;109181;-86
2022/03/09 03:32:03;;;;;;;12.97;7.70;;;3.60;72.60;;;;;;7343666;19;109766;-87
2022/03/09 03:34:30;;;;;;;13.77;8.00;;;3.60;72.60;;;;;;7342543;19;110232;-86
2022/03/09 03:36:57;;;;;;;11.70;7.87;;;3.60;72.60;;;;;;7342141;19;109287;-87
2022/03/09 03:39:24;;;;;;;9.90;7.43;;;3.60;72.60;;;;;;7341260;19;109415;-87
2022/03/09 03:41:52;;;;;;;12.80;7.37;;;3.60;72.80;;;;;;7343204;19;110241;-86
2022/03/09 03:44:19;;;;;;;11.77;7.77;;;3.50;72.70;;;;;;7340535;19;109296;-87
2022/03/09 03:46:46;;;;;;;10.40;7.67;;;3.50;72.70;;;;;;7346642;19;109847;-87
2022/03/09 03:49:13;;;;;;;15.63;7.83;;;3.50;72.70;;;;;;7346228;19;108620;-87
2022/03/09 03:51:41;;;;;;;12.47;7.60;;;3.50;72.70;;;;;;7341022;19;108262;-86
2022/03/09 03:54:09;;;;;;;11.27;7.63;;;3.50;72.90;;;;;;7341978;19;110541;-86
2022/03/09 03:56:36;;;;;;;12.90;8.00;;;3.40;73.00;;;;;;7340819;19;109417;-86
2022/03/09 03:59:03;;;;;;;10.57;7.67;;;3.40;72.80;;;;;;7342063;19;109484;-87
2022/03/09 04:01:30;;;;;;;15.97;8.37;;;3.40;73.00;;;;;;7341445;19;110042;-83
2022/03/09 04:04:00;;;;;;;11.93;7.67;;;3.40;73.30;;;;;;7333547;19;111458;-83
2022/03/09 04:06:28;;;;;;;13.57;7.97;;;3.30;73.50;;;;;;7345023;19;109462;-84
2022/03/09 04:08:55;;;;;;;13.53;8.57;;;3.30;73.60;;;;;;7341113;19;110331;-83
2022/03/09 04:11:23;;;;;;;12.17;8.27;;;3.30;74.00;;;;;;7338981;19;109676;-83
2022/03/09 04:13:50;;;;;;;12.33;8.67;;;3.20;73.90;;;;;;7340990;19;111168;-83
2022/03/09 04:16:17;;;;;;;11.87;8.33;;;3.20;74.10;;;;;;7337647;19;109123;-83
2022/03/09 04:18:44;;;;;;;14.40;8.63;;;3.10;74.30;;;;;;7342010;19;111578;-83
2022/03/09 04:21:11;;;;;;;11.00;7.90;;;3.10;74.70;;;;;;7339025;19;110298;-83
2022/03/09 04:23:38;;;;;;;13.63;7.73;;;3.10;74.80;;;;;;7336183;19;109799;-83
2022/03/09 04:26:08;;;;;;;11.27;8.10;;;3.00;74.80;;;;;;7341449;19;109797;-83
2022/03/09 04:28:35;;;;;;;11.90;7.63;;;3.00;75.00;;;;;;7344324;19;109250;-83
2022/03/09 04:31:03;;;;;;;12.80;8.27;;;3.00;75.20;;;;;;7340068;19;108628;-83
2022/03/09 04:33:30;;;;;;;10.57;8.10;;;3.00;75.30;;;;;;7339075;19;110080;-83
2022/03/09 04:35:57;;;;;;;10.87;7.67;;;3.00;75.10;;;;;;7339568;19;109697;-83
2022/03/09 04:38:26;;;;;;;10.87;7.57;;;3.00;74.80;;;;;;7340325;19;109299;-83
2022/03/09 04:40:53;;;;;;;15.33;8.20;;;3.00;75.00;;;;;;7338159;19;110267;-83
2022/03/09 04:43:20;;;;;;;13.37;7.70;;;3.00;75.00;;;;;;7338717;19;108624;-83
2022/03/09 04:45:47;;;;;;;16.60;8.53;;;3.00;75.30;;;;;;7341375;19;110201;-83
2022/03/09 04:48:14;;;;;;;13.77;8.00;;;2.90;75.50;;;;;;7337302;19;110482;-83
2022/03/09 04:50:41;;;;;;;12.90;8.47;;;2.90;75.60;;;;;;7345813;19;108525;-83
2022/03/09 04:53:09;;;;;;;10.80;7.70;;;2.90;75.30;;;;;;7337289;19;110290;-84
2022/03/09 04:55:36;;;;;;;14.20;8.47;;;2.80;75.60;;;;;;7338409;19;109791;-83
2022/03/09 04:58:04;;;;;;;12.67;8.27;;;2.80;75.70;;;;;;7339985;19;109892;-83
2022/03/09 05:00:31;;;;;;;11.33;8.00;;;2.80;75.70;;;;;;7338912;19;110447;-83
2022/03/09 05:02:58;;;;;;;12.47;8.17;;;2.80;75.90;;;;;;7340127;19;108450;-83
2022/03/09 05:05:25;;;;;;;11.10;7.93;;;2.80;75.90;;;;;;7338081;19;109362;-83
2022/03/09 05:07:52;;;;;;;10.93;7.27;;;2.80;75.70;;;;;;7338943;19;110584;-84
2022/03/09 05:10:20;;;;;;;15.27;8.10;;;2.80;75.80;;;;;;7340491;19;108875;-83
2022/03/09 05:12:47;;;;;;;14.40;8.17;;;2.80;75.80;;;;;;7343434;19;110178;-83
2022/03/09 05:15:14;;;;;;;18.27;8.73;;;2.80;76.00;;;;;;7338666;19;108337;-84
2022/03/09 05:17:43;;;;;;;15.80;8.37;;;2.80;75.80;;;;;;7337628;19;109459;-84
2022/03/09 05:20:11;;;;;;;13.63;8.50;;;2.80;76.00;;;;;;7337670;19;110179;-83
2022/03/09 05:22:38;;;;;;;19.37;8.43;;;2.80;76.20;;;;;;7339905;19;108429;-83
2022/03/09 05:25:06;;;;;;;15.07;7.73;;;2.70;76.30;;;;;;7337694;19;112189;-83
2022/03/09 05:27:36;;;;;;;11.87;8.10;;;2.70;76.40;;;;;;7339648;19;110988;-83
2022/03/09 05:30:03;;;;;;;12.13;8.27;;;2.70;76.30;;;;;;7337408;19;109497;-83
2022/03/09 05:32:31;;;;;;;14.97;8.27;;;2.80;76.20;;;;;;7337776;19;109694;-83
2022/03/09 05:34:58;;;;;;;13.23;8.17;;;2.80;76.20;;;;;;7348366;19;110660;-83
2022/03/09 05:37:25;;;;;;;13.60;8.90;;;2.70;76.40;;;;;;7342502;19;109912;-83
2022/03/09 05:39:52;;;;;;;12.57;8.20;;;2.70;76.30;;;;;;7344093;19;110281;-83
2022/03/09 05:42:19;;;;;;;12.27;8.23;;;2.70;76.40;;;;;;7346144;19;108784;-83
2022/03/09 05:44:46;;;;;;;14.13;8.37;;;2.70;76.60;;;;;;7344973;19;109464;-83
2022/03/09 05:47:33;;;;;;;12.13;8.27;;;2.70;76.90;;;;;;7346263;19;111672;-83
2022/03/09 05:50:00;;;;;;;17.23;9.03;;;2.70;76.60;;;;;;7341383;19;108373;-83
2022/03/09 05:52:27;;;;;;;18.50;8.20;;;2.60;77.10;;;;;;7342753;19;109337;-84
2022/03/09 05:54:54;;;;;;;15.03;8.23;;;2.60;76.60;;;;;;7345206;19;109205;-83
2022/03/09 05:57:22;;;;;;;18.03;8.77;;;2.60;76.80;;;;;;7348665;19;109140;-84
2022/03/09 05:59:49;;;;;;;18.43;9.10;;;2.60;76.90;;;;;;7342567;19;109108;-83
2022/03/09 06:02:16;;;;;;;12.67;8.33;;;2.60;76.60;;;;;;7342095;19;109797;-83
2022/03/09 06:04:47;;;;;;;13.93;8.50;;;2.60;77.40;;;;;;7343347;19;109927;-84
2022/03/09 06:07:14;;;;;;;16.10;8.53;;;2.50;77.50;;;;;;7344583;19;109141;-83
2022/03/09 06:09:41;;;;;;;11.87;8.27;;;2.40;77.40;;;;;;7341338;19;109343;-83
2022/03/09 06:12:09;;;;;;;14.47;9.17;;;2.40;77.50;;;;;;7343780;19;110966;-84
2022/03/09 06:14:36;;;;;;;16.23;9.43;;;2.50;77.40;;;;;;7341256;19;110518;-85
2022/03/09 06:17:03;;;;;;;15.87;8.73;;;2.40;78.00;;;;;;7344822;19;108547;-84
2022/03/09 06:19:30;;;;;;;12.77;8.90;;;2.40;78.10;;;;;;7343042;19;112214;-84
2022/03/09 06:21:57;;;;;;;17.13;8.73;;;2.40;78.00;;;;;;7340865;19;109269;-84
2022/03/09 06:24:25;;;;;;;16.60;8.47;;;2.40;78.60;;;;;;7342130;19;109768;-83
2022/03/09 06:26:55;;;;;;;17.63;8.50;;;2.40;77.90;;;;;;7339396;19;112616;-84
2022/03/09 06:29:22;;;;;;;15.53;8.60;;;2.40;78.40;;;;;;7342805;19;108504;-84
2022/03/09 06:31:50;;;;;;;14.87;8.47;;;2.40;78.60;;;;;;7338940;19;109536;-85
2022/03/09 06:34:17;;;;;;;16.53;8.80;;;2.40;78.20;;;;;;7339924;19;110400;-84
2022/03/09 06:36:44;;;;;;;14.67;8.87;;;2.50;78.60;;;;;;7341743;19;109206;-85
2022/03/09 06:39:13;;;;;;;18.87;9.00;;;2.50;78.40;;;;;;7344905;19;109362;-85
2022/03/09 06:41:45;;;;;;;17.93;9.63;;;2.60;78.40;;;;;;7340745;19;110908;-85
2022/03/09 06:44:13;;;;;;;12.80;8.47;;;2.60;78.80;;;;;;7342312;19;110772;-84
2022/03/09 06:46:41;;;;;;;15.00;9.03;;;2.70;78.70;;;;;;7338961;19;111004;-84
2022/03/09 06:49:08;;;;;;;16.73;9.03;;;2.80;78.80;;;;;;7340243;19;108602;-85
2022/03/09 06:51:35;;;;;;;18.93;9.33;;;2.80;78.80;;;;;;7338952;19;109445;-84
2022/03/09 06:54:03;;;;;;;16.23;9.60;;;2.90;79.60;;;;;;7341708;19;109567;-83
2022/03/09 06:56:30;;;;;;;14.40;9.27;;;2.90;79.60;;;;;;7342795;19;108803;-85
2022/03/09 06:58:57;;;;;;;15.67;9.23;;;2.90;80.30;;;;;;7341371;19;109478;-84
2022/03/09 07:01:24;;;;;;;18.47;9.37;;;3.00;80.80;;;;;;7348187;19;110233;-84
2022/03/09 07:03:51;;;;;;;14.50;8.20;;;3.00;81.60;;;;;;7341426;19;110032;-85
2022/03/09 07:06:18;;;;;;;13.90;8.47;;;3.10;81.70;;;;;;7339019;19;109158;-85
2022/03/09 07:08:46;;;;;;;17.80;9.33;;;3.20;81.90;;;;;;7344071;19;108659;-84
2022/03/09 07:11:13;;;;;;;15.57;9.03;;;3.20;81.90;;;;;;7341226;19;108507;-83
2022/03/09 07:13:41;;;;;;;18.57;8.73;;;3.40;81.80;;;;;;7342910;19;110187;-84
2022/03/09 07:16:08;;;;;;;12.07;8.70;;;3.50;81.70;;;;;;7338627;19;108768;-85
2022/03/09 07:18:36;;;;;;;17.27;9.03;;;3.50;81.80;;;;;;7340822;19;109561;-85
2022/03/09 07:21:03;;;;;;;17.37;8.80;;;3.70;81.60;;;;;;7339269;19;110255;-84
2022/03/09 07:23:30;;;;;;;16.53;8.93;;;3.80;81.20;;;;;;7345752;19;108332;-84
2022/03/09 07:25:57;;;;;;;15.17;8.43;;;3.90;81.20;;;;;;7338771;19;109966;-84
2022/03/09 07:28:25;;;;;;;12.30;8.33;;;4.00;80.90;;;;;;7341471;19;109967;-85
2022/03/09 07:30:52;;;;;;;17.27;9.10;;;4.10;80.60;;;;;;7341398;19;109564;-84
2022/03/09 07:33:20;;;;;;;17.97;8.73;;;4.30;80.90;;;;;;7340659;19;110681;-83
2022/03/09 07:35:47;;;;;;;14.33;8.20;;;4.40;80.90;;;;;;7340899;19;110384;-84
2022/03/09 07:38:14;;;;;;;18.33;8.97;;;4.50;80.70;;;;;;7342410;19;111863;-84
2022/03/09 07:40:42;;;;;;;19.00;9.50;;;4.60;80.90;;;;;;7338723;19;110023;-83
2022/03/09 07:43:10;;;;;;;19.87;10.17;;;4.70;80.90;;;;;;7339150;19;110863;-83
2022/03/09 07:45:40;;;;;;;17.90;10.03;;;4.70;80.30;;;;;;7344302;19;111779;-84
2022/03/09 07:48:08;;;;;;;13.87;9.40;;;4.80;80.10;;;;;;7336483;19;112242;-82
2022/03/09 07:50:36;;;;;;;18.63;9.57;;;4.90;80.10;;;;;;7340473;19;109458;-84
2022/03/09 07:53:07;;;;;;;14.33;9.63;;;5.00;79.80;;;;;;7340228;19;110214;-83
2022/03/09 07:55:34;;;;;;;16.00;9.63;;;5.10;79.80;;;;;;7337900;19;108313;-84
2022/03/09 07:58:03;;;;;;;13.83;8.70;;;5.20;80.00;;;;;;7340633;19;109831;-85
2022/03/09 08:00:30;;;;;;;18.77;10.00;;;5.30;80.00;;;;;;7338504;19;110103;-84
2022/03/09 08:02:57;;;;;;;16.37;9.30;;;5.40;79.70;;;;;;7336670;19;110360;-85
2022/03/09 08:05:44;;;;;;;15.27;9.17;;;5.50;79.40;;;;;;7345512;19;111484;-84
2022/03/09 08:08:11;;;;;;;15.77;9.47;;;5.70;79.00;;;;;;7336974;19;108633;-85
2022/03/09 08:10:38;;;;;;;13.60;9.70;;;5.80;79.20;;;;;;7338963;19;109826;-85
2022/03/09 08:13:07;;;;;;;17.10;9.30;;;5.90;79.10;;;;;;7335500;19;110147;-86
2022/03/09 08:15:35;;;;;;;17.73;9.80;;;6.00;79.60;;;;;;7337189;19;108727;-88
2022/03/09 08:18:03;;;;;;;15.87;9.53;;;6.00;78.50;;;;;;7341321;19;109553;-88
2022/03/09 08:20:30;;;;;;;16.63;10.27;;;6.10;78.40;;;;;;7341059;19;110615;-87
2022/03/09 08:22:57;;;;;;;14.93;9.93;;;6.20;78.20;;;;;;7337347;19;110192;-88
2022/03/09 08:25:25;;;;;;;13.27;9.53;;;6.30;78.30;;;;;;7340154;19;109506;-88
2022/03/09 08:27:52;;;;;;;16.67;10.10;;;6.40;78.00;;;;;;7342844;19;110155;-87
2022/03/09 08:30:19;;;;;;;18.40;10.30;;;6.50;78.00;;;;;;7338240;19;112478;-87
2022/03/09 08:32:46;;;;;;;;;;;6.60;78.00;;;;;;7335554;19;110407;-87
2022/03/09 08:35:13;;;;;;;15.17;9.87;;;6.70;77.90;;;;;;7342273;19;110355;-87
2022/03/09 08:37:40;;;;;;;18.43;10.90;;;6.80;77.80;;;;;;7339974;19;109321;-90
2022/03/09 08:40:08;;;;;;;;;;;6.90;77.70;;;;;;7332039;19;110763;-85
2022/03/09 08:42:35;;;;;;;16.00;10.57;;;7.00;77.90;;;;;;7340651;19;111550;-84
2022/03/09 08:45:02;;;;;;;16.77;10.77;;;7.10;77.60;;;;;;7331934;19;111786;-85
2022/03/09 08:47:29;;;;;;;24.47;11.27;;;7.30;77.60;;;;;;7335031;19;111312;-84
2022/03/09 08:49:57;;;;;;;18.30;10.70;;;7.30;77.40;;;;;;7339961;19;111264;-84
2022/03/09 08:52:44;;;;;;;;;;;7.40;77.60;;;;;;7180638;19;2998492;-84
2022/03/09 08:55:11;;;;;;;17.40;10.97;;;7.50;77.40;;;;;;7343871;19;111172;-84
2022/03/09 08:57:38;;;;;;;18.67;10.00;;;7.60;77.40;;;;;;7337850;19;110726;-84
2022/03/09 09:00:06;;;;;;;17.10;10.83;;;7.70;76.70;;;;;;7335816;19;110128;-84
2022/03/09 09:02:33;;;;;;;19.93;11.73;;;7.80;76.60;;;;;;7338543;19;111524;-84
2022/03/09 09:05:01;;;;;;;19.37;11.03;;;7.90;76.50;;;;;;7334672;19;111785;-84
2022/03/09 09:07:28;;;;;;;18.17;11.23;;;8.00;76.40;;;;;;7336402;19;111779;-84
2022/03/09 09:09:55;;;;;;;19.03;11.43;;;8.10;76.40;;;;;;7338996;19;111376;-83
2022/03/09 09:12:24;;;;;;;21.07;11.50;;;8.30;76.70;;;;;;7347274;19;111907;-83
2022/03/09 09:14:51;;;;;;;20.80;10.95;;;8.30;76.10;;;;;;7343646;19;111608;-85
2022/03/09 09:17:18;;;;;;;18.67;12.05;;;8.50;76.20;;;;;;7340283;19;112129;-84
2022/03/09 09:20:03;;;;;;;23.17;11.55;;;8.60;76.20;;;;;;7343542;19;110372;-86
2022/03/09 09:22:30;;;;;;;17.10;11.80;;;8.80;75.80;;;;;;7341825;19;110796;-91
2022/03/09 09:25:17;;;;;;;24.42;11.98;;;8.80;75.70;;;;;;7345574;19;112596;-90
2022/03/09 09:27:44;;;;;;;18.00;11.27;;;9.00;75.60;;;;;;7349744;19;110271;-90
2022/03/09 09:30:14;;;;;;;22.35;12.30;;;9.10;75.80;;;;;;7348308;19;110965;-89
2022/03/09 09:32:41;;;;;;;23.25;13.02;;;9.20;75.20;;;;;;7349357;19;112514;-92
2022/03/09 09:35:12;;;;;;;25.80;13.00;;;9.30;75.70;;;;;;7354725;19;109893;-92
2022/03/09 09:37:40;;;;;;;20.95;12.13;;;9.50;75.60;;;;;;7347583;19;115121;-92
2022/03/09 09:40:08;;;;;;;21.65;12.77;;;9.60;75.20;;;;;;7348776;19;110887;-92
2022/03/09 09:42:35;;;;;;;21.83;12.30;;;9.70;75.10;;;;;;7349935;19;111912;-93
2022/03/09 09:45:20;;;;;;;20.48;12.50;;;9.80;74.90;;;;;;7348097;19;115048;-93
2022/03/09 09:47:51;;;;;;;22.75;12.90;;;10.00;74.80;;;;;;7347956;19;109992;-92
2022/03/09 09:50:19;;;;;;;22.38;13.90;;;10.10;74.90;;;;;;7349520;19;110928;-92
2022/03/09 09:52:46;;;;;;;21.15;12.85;;;10.20;74.40;;;;;;7348569;19;111806;-93
2022/03/09 09:55:14;;;;;;;24.27;13.65;;;10.40;74.20;;;;;;7348908;19;111307;-92
2022/03/09 09:57:42;;;;;;;26.17;13.77;;;10.40;73.80;;;;;;7355080;19;114786;-93
2022/03/09 10:00:10;;;;;;;22.40;13.82;;;10.50;73.80;;;;;;7349853;19;110126;-92
2022/03/09 10:02:40;;;;;;;26.23;14.38;;;10.60;74.30;;;;;;7350632;19;111894;-93
2022/03/09 10:05:10;;;;;;;25.17;13.55;;;10.80;73.70;;;;;;7346671;19;110992;-93
2022/03/09 10:08:03;;;;;;;25.60;14.48;;;10.90;73.50;;;;;;7350131;19;110866;-93
2022/03/09 10:10:38;;;;;;;24.25;14.43;;;11.00;73.20;;;;;;7347358;19;111777;-93
2022/03/09 10:13:14;;;;;;;26.67;15.23;;;11.10;73.40;;;;;;7348517;19;111188;-93
2022/03/09 10:15:43;;;;;;;24.92;13.77;;;11.20;73.40;;;;;;7347798;19;110781;-95
2022/03/09 10:18:17;;;;;;;25.48;14.35;;;11.30;73.30;;;;;;7350363;19;110783;-92
2022/03/09 10:20:46;;;;;;;24.80;14.75;;;11.50;73.00;;;;;;7347096;19;110336;-91
2022/03/09 10:23:15;;;;;;;29.95;15.18;;;11.60;72.80;;;;;;7349692;19;111573;-93
2022/03/09 10:25:46;;;;;;;28.77;15.02;;;11.70;72.70;;;;;;7348365;19;111948;-93
2022/03/09 10:28:13;;;;;;;29.85;16.08;;;11.80;72.60;;;;;;7347774;19;110833;-93
2022/03/09 10:30:42;;;;;;;31.05;15.90;;;11.90;72.60;;;;;;7347910;19;110996;-92
2022/03/09 10:33:12;;;;;;;23.63;14.65;;;12.00;72.30;;;;;;7347119;19;110975;-91
2022/03/09 10:35:49;;;;;;;27.42;16.20;;;12.10;72.40;;;;;;7346828;19;110920;-91
2022/03/09 10:38:25;;;;;;;31.00;16.35;;;12.30;72.20;;;;;;7348112;19;111482;-91
2022/03/09 10:40:56;;;;;;;32.42;16.00;;;12.30;71.60;;;;;;7353103;19;111720;-91
2022/03/09 10:43:29;;;;;;;30.02;15.95;;;12.40;71.20;;;;;;7348037;19;110708;-90
2022/03/09 10:46:05;;;;;;;27.33;14.90;;;12.50;71.00;;;;;;7344806;19;112213;-90
2022/03/09 10:48:57;;;;;;;29.52;16.70;;;12.60;70.80;;;;;;7345321;19;110319;-90
2022/03/09 10:51:32;;;;;;;30.73;17.08;;;12.70;70.80;;;;;;7345936;19;111783;-90
2022/03/09 10:54:04;;;;;;;30.88;16.33;;;12.70;71.00;;;;;;7344861;19;111102;-90
2022/03/09 10:56:32;;;;;;;30.35;16.02;;;12.80;71.10;;;;;;7346717;19;110613;-91
2022/03/09 10:59:13;;;;;;;31.90;16.13;;;13.00;71.00;;;;;;7347287;19;110725;-90
2022/03/09 11:01:41;;;;;;;33.53;18.27;;;13.20;70.60;;;;;;7345715;19;111491;-90
2022/03/09 11:04:19;;;;;;;34.75;17.55;;;13.30;70.30;;;;;;7352119;19;110999;-90
2022/03/09 11:06:46;;;;;;;35.35;17.65;;;13.40;70.20;;;;;;7344099;19;111178;-91
2022/03/09 11:09:18;;;;;;;29.90;17.60;;;13.50;70.10;;;;;;7344581;19;110174;-89
2022/03/09 11:11:47;;;;;;;31.77;18.40;;;13.50;69.80;;;;;;7344428;19;110762;-92
2022/03/09 11:14:16;;;;;;;31.80;16.85;;;13.50;69.70;;;;;;7346240;19;110943;-91
2022/03/09 11:16:48;;;;;;;31.25;17.58;;;13.60;69.20;;;;;;7345120;19;113677;-89
2022/03/09 11:19:18;;;;;;;35.53;17.67;;;13.60;69.70;;;;;;7339273;19;111601;-88
2022/03/09 11:21:47;;;;;;;32.20;16.33;;;13.80;69.70;;;;;;7342936;19;111511;-93
2022/03/09 11:24:19;;;;;;;36.47;18.35;;;13.90;69.40;;;;;;7347485;19;111562;-93
2022/03/09 11:26:55;;;;;;;31.75;16.95;;;13.90;69.00;;;;;;7348679;19;112882;-93
2022/03/09 11:29:35;;;;;;;28.75;17.05;;;14.00;68.60;;;;;;7347072;19;110253;-95
2022/03/09 11:32:07;;;;;;;30.23;16.38;;;14.20;68.50;;;;;;7344055;19;111876;-95
2022/03/09 11:34:41;;;;;;;30.13;17.00;;;14.30;68.90;;;;;;7345362;19;109936;-93
2022/03/09 11:37:32;;;;;;;35.40;18.40;;;14.40;68.80;;;;;;7346668;19;110244;-92
2022/03/09 11:40:06;;;;;;;32.83;18.30;;;14.60;69.10;;;;;;7346093;19;112138;-91
2022/03/09 11:42:34;;;;;;;33.58;17.98;;;14.70;66.90;;;;;;7346464;19;110902;-93
2022/03/09 11:45:14;;;;;;;31.83;18.05;;;14.70;67.80;;;;;;7345695;19;110213;-92
2022/03/09 11:48:14;;;;;;;34.95;18.88;;;14.90;67.90;;;;;;7345054;19;113970;-93
2022/03/09 11:50:47;;;;;;;33.47;17.85;;;15.00;67.20;;;;;;7350672;19;113038;-91
2022/03/09 11:53:34;;;;;;;35.30;18.00;;;15.00;67.50;;;;;;7346794;19;114141;-93
2022/03/09 11:56:21;;;;;;;37.13;19.17;;;15.20;67.00;;;;;;7345979;19;111272;-92
2022/03/09 11:59:19;;;;;;;38.65;18.80;;;15.30;67.40;;;;;;7344644;19;109878;-93
2022/03/09 12:01:58;;;;;;;33.03;18.50;;;15.40;65.80;;;;;;7344730;19;111470;-92
2022/03/09 12:04:50;;;;;;;31.77;17.98;;;15.50;65.20;;;;;;7345756;19;111755;-92
2022/03/09 12:07:34;;;;;;;31.90;18.33;;;15.50;64.30;;;;;;7342622;19;109962;-93
2022/03/09 12:10:08;;;;;;;35.58;18.70;;;15.60;65.50;;;;;;7347791;19;111472;-92
2022/03/09 12:12:37;;;;;;;30.83;17.60;;;15.70;65.40;;;;;;7346182;19;111232;-93
2022/03/09 12:15:14;;;;;;;33.78;19.17;;;15.80;64.60;;;;;;7353401;19;113544;-93
2022/03/09 12:17:49;;;;;;;38.47;18.80;;;16.00;64.30;;;;;;7345841;19;111156;-94
2022/03/09 12:20:32;;;;;;;36.58;18.73;;;16.10;63.90;;;;;;7346157;19;110651;-94
2022/03/09 12:22:59;;;;;;;33.63;18.92;;;16.30;64.60;;;;;;7343761;19;110967;-94
2022/03/09 12:25:46;;;;;;;34.40;18.92;;;16.40;64.70;;;;;;7342707;19;111534;-90
2022/03/09 12:28:28;;;;;;;35.30;19.45;;;16.50;62.50;;;;;;7342570;19;110439;-90
2022/03/09 12:30:56;;;;;;;39.33;19.67;;;16.60;63.10;;;;;;7339668;19;112142;-89
2022/03/09 12:33:33;;;;;;;36.95;19.60;;;16.80;61.60;;;;;;7342128;19;112525;-90
2022/03/09 12:36:10;;;;;;;33.20;18.65;;;16.80;62.10;;;;;;7344742;19;110576;-90
2022/03/09 12:39:02;;;;;;;35.65;18.70;;;17.00;62.70;;;;;;7338626;19;110652;-89
2022/03/09 12:41:33;;;;;;;37.67;19.75;;;17.00;60.60;;;;;;7340504;19;111075;-90
2022/03/09 12:44:03;;;;;;;33.30;18.40;;;17.10;60.60;;;;;;7338597;19;110928;-90
2022/03/09 12:46:30;;;;;;;36.28;20.15;;;17.20;60.70;;;;;;7340234;19;112851;-90
2022/03/09 12:49:10;;;;;;;35.60;19.70;;;17.30;60.10;;;;;;7340088;19;112007;-91